createdAt,value
2022-11-13T00:00:26.809Z,98780.78
2022-11-13T00:03:03.747Z,98781.25
2022-11-13T00:05:31.591Z,98779.41
2022-11-13T00:08:02.190Z,98770.75
2022-11-13T00:10:29.562Z,98788.22
2022-11-13T00:12:59.669Z,98781.09
2022-11-13T00:15:27.203Z,98784.66
2022-11-13T00:18:00.756Z,98773.38
2022-11-13T00:20:31.293Z,98776.88
2022-11-13T00:22:58.611Z,98767.28
2022-11-13T00:25:26.079Z,98765.50
2022-11-13T00:27:53.460Z,98770.75
2022-11-13T00:30:22.017Z,98777.34
2022-11-13T00:32:56.190Z,98781.25
2022-11-13T00:35:26.211Z,98770.03
2022-11-13T00:37:56.675Z,98771.81
2022-11-13T00:40:27.467Z,98770.97
2022-11-13T00:42:55.383Z,98775.16
2022-11-13T00:45:25.084Z,98763.66
2022-11-13T00:48:04.404Z,98766.28
2022-11-13T00:50:32.729Z,98767.06
2022-11-13T00:52:59.918Z,98766.84
2022-11-13T00:55:27.029Z,98766.19
2022-11-13T00:57:57.219Z,98761.44
2022-11-13T01:00:27.254Z,98764.22
2022-11-13T01:02:54.537Z,98759.75
2022-11-13T01:05:21.766Z,98766.97
2022-11-13T01:07:49.344Z,98765.63
2022-11-13T01:10:17.238Z,98770.97
2022-11-13T01:12:44.339Z,98767.41
2022-11-13T01:15:11.812Z,98767.56
2022-11-13T01:17:39.382Z,98763.16
2022-11-13T01:20:07.436Z,98763.25
2022-11-13T01:22:34.276Z,98758.28
2022-11-13T01:25:04.307Z,98756.41
2022-11-13T01:27:31.832Z,98757.28
2022-11-13T01:29:58.925Z,98752.63
2022-11-13T01:32:26.133Z,98749.06
2022-11-13T01:34:53.501Z,98756.94
2022-11-13T01:37:23.251Z,98760.31
2022-11-13T01:39:50.837Z,98751.69
2022-11-13T01:42:18.065Z,98754.56
2022-11-13T01:44:57.301Z,98767.00
2022-11-13T01:47:25.127Z,98757.78
2022-11-13T01:49:56.173Z,98758.03
2022-11-13T01:52:39.145Z,98755.69
2022-11-13T01:55:16.401Z,98755.91
2022-11-13T01:57:43.815Z,98756.56
2022-11-13T02:00:13.089Z,98751.94
2022-11-13T02:02:40.260Z,98756.78
2022-11-13T02:05:09.457Z,98748.66
2022-11-13T02:07:36.614Z,98742.72
2022-11-13T02:10:04.001Z,98756.34
2022-11-13T02:12:37.429Z,98748.66
2022-11-13T02:15:07.152Z,98753.88
2022-11-13T02:17:45.901Z,98749.91
2022-11-13T02:20:14.392Z,98746.09
2022-11-13T02:22:59.612Z,98751.34
2022-11-13T02:25:32.540Z,98746.09
2022-11-13T02:27:59.828Z,98741.97
2022-11-13T02:30:30.776Z,98745.50
2022-11-13T02:32:59.671Z,98742.22
2022-11-13T02:35:31.368Z,98745.25
2022-11-13T02:38:04.315Z,98748.81
2022-11-13T02:40:32.965Z,98747.63
2022-11-13T02:43:00.072Z,98749.66
2022-11-13T02:45:27.264Z,98748.97
2022-11-13T02:47:54.437Z,98747.59
2022-11-13T02:50:21.749Z,98735.41
2022-11-13T02:52:48.911Z,98747.59
2022-11-13T02:55:16.312Z,98750.91
2022-11-13T02:57:43.290Z,98752.19
2022-11-13T03:00:13.999Z,98752.75
2022-11-13T03:02:41.820Z,98751.44
2022-11-13T03:05:14.339Z,98754.38
2022-11-13T03:07:42.307Z,98748.34
2022-11-13T03:10:10.706Z,98745.25
2022-11-13T03:12:39.018Z,98741.22
2022-11-13T03:15:07.702Z,98741.22
2022-11-13T03:17:35.865Z,98734.25
2022-11-13T03:20:04.147Z,98735.56
2022-11-13T03:22:31.182Z,98744.56
2022-11-13T03:24:58.212Z,98745.56
2022-11-13T03:27:27.591Z,98736.56
2022-11-13T03:29:54.664Z,98743.47
2022-11-13T03:32:21.641Z,98727.34
2022-11-13T03:34:49.388Z,98728.28
2022-11-13T03:37:16.830Z,98725.50
2022-11-13T03:39:44.061Z,98732.25
2022-11-13T03:42:11.577Z,98728.69
2022-11-13T03:44:40.940Z,98735.63
2022-11-13T03:47:08.044Z,98734.44
2022-11-13T03:49:35.522Z,98744.78
2022-11-13T03:52:02.769Z,98740.28
2022-11-13T03:54:29.854Z,98749.59
2022-11-13T03:56:59.741Z,98749.66
2022-11-13T03:59:26.998Z,98738.66
2022-11-13T04:01:53.994Z,98743.06
2022-11-13T04:04:21.369Z,98748.47
2022-11-13T04:06:48.515Z,98751.09
2022-11-13T04:09:15.770Z,98744.06
2022-11-13T04:11:45.198Z,98749.47
2022-11-13T04:14:12.328Z,98744.50
2022-11-13T04:16:39.493Z,98746.13
2022-11-13T04:19:06.620Z,98750.31
2022-11-13T04:21:33.891Z,98752.72
2022-11-13T04:24:01.296Z,98748.13
2022-11-13T04:26:28.700Z,98757.63
2022-11-13T04:28:55.870Z,98748.66
2022-11-13T04:31:22.938Z,98751.53
2022-11-13T04:33:49.994Z,98756.09
2022-11-13T04:36:17.533Z,98752.03
2022-11-13T04:38:44.927Z,98743.06
2022-11-13T04:41:32.194Z,98746.94
2022-11-13T04:44:01.981Z,98741.53
2022-11-13T04:46:29.105Z,98738.34
2022-11-13T04:48:56.239Z,98744.91
2022-11-13T04:51:23.467Z,98742.69
2022-11-13T04:53:50.474Z,98738.81
2022-11-13T04:56:17.913Z,98738.28
2022-11-13T04:58:44.959Z,98741.00
2022-11-13T05:01:12.405Z,98746.25
2022-11-13T05:03:39.451Z,98739.63
2022-11-13T05:06:09.298Z,98742.41
2022-11-13T05:08:36.624Z,98751.25
2022-11-13T05:11:04.323Z,98743.50
2022-11-13T05:13:33.421Z,98754.28
2022-11-13T05:16:03.071Z,98746.44
2022-11-13T05:18:31.306Z,98746.53
2022-11-13T05:20:58.791Z,98746.00
2022-11-13T05:23:27.725Z,98756.63
2022-11-13T05:26:02.532Z,98753.25
2022-11-13T05:28:29.783Z,98753.75
2022-11-13T05:31:09.569Z,98751.06
2022-11-13T05:33:37.496Z,98759.69
2022-11-13T05:36:06.443Z,98765.38
2022-11-13T05:38:33.826Z,98755.66
2022-11-13T05:41:18.398Z,98760.06
2022-11-13T05:43:46.117Z,98768.31
2022-11-13T05:46:16.459Z,98769.16
2022-11-13T05:48:45.247Z,98770.00
2022-11-13T05:51:23.034Z,98763.44
2022-11-13T05:53:51.145Z,98770.91
2022-11-13T05:56:42.681Z,98774.38
2022-11-13T05:59:23.132Z,98780.88
2022-11-13T06:01:51.446Z,98774.28
2022-11-13T06:04:25.814Z,98771.38
2022-11-13T06:07:22.100Z,98771.38
2022-11-13T06:09:53.218Z,98778.47
2022-11-13T06:12:20.617Z,98782.94
2022-11-13T06:14:53.582Z,98781.81
2022-11-13T06:17:25.397Z,98779.59
2022-11-13T06:19:55.921Z,98778.75
2022-11-13T06:25:15.572Z,98780.63
2022-11-13T06:27:42.839Z,98780.00
2022-11-13T06:30:10.936Z,98776.88
2022-11-13T06:32:38.228Z,98777.50
2022-11-13T06:35:06.076Z,98777.25
2022-11-13T06:37:34.923Z,98775.38
2022-11-13T06:40:02.018Z,98778.69
2022-11-13T06:42:29.139Z,98770.94
2022-11-13T06:45:15.986Z,98786.03
2022-11-13T06:47:43.110Z,98778.06
2022-11-13T06:50:10.365Z,98768.25
2022-11-13T06:52:37.433Z,98771.56
2022-11-13T06:55:05.300Z,98762.06
2022-11-13T06:57:32.411Z,98765.06
2022-11-13T07:00:02.539Z,98765.06
2022-11-13T07:02:29.605Z,98768.09
2022-11-13T07:04:56.646Z,98771.03
2022-11-13T07:07:27.120Z,98777.22
2022-11-13T07:09:54.309Z,98766.75
2022-11-13T07:12:21.597Z,98764.22
2022-11-13T07:14:48.617Z,98760.66
2022-11-13T07:17:17.842Z,98761.25
2022-11-13T07:19:44.800Z,98756.34
2022-11-13T07:22:14.884Z,98758.28
2022-11-13T07:24:42.942Z,98762.69
2022-11-13T07:27:09.734Z,98758.63
2022-11-13T07:29:37.118Z,98754.81
2022-11-13T07:32:07.827Z,98750.94
2022-11-13T07:34:34.889Z,98753.97
2022-11-13T07:37:02.152Z,98750.81
2022-11-13T07:39:29.614Z,98751.59
2022-11-13T07:41:56.588Z,98741.94
2022-11-13T07:44:54.072Z,98738.31
2022-11-13T07:47:21.944Z,98742.53
2022-11-13T07:49:49.217Z,98740.56
2022-11-13T07:52:16.746Z,98742.78
2022-11-13T07:54:44.041Z,98735.38
2022-11-13T07:57:11.342Z,98742.34
2022-11-13T07:59:38.257Z,98736.16
2022-11-13T08:02:07.872Z,98736.84
2022-11-13T08:04:34.863Z,98738.69
2022-11-13T08:07:01.876Z,98742.03
2022-11-13T08:09:29.161Z,98732.97
2022-11-13T08:11:56.209Z,98739.06
2022-11-13T08:14:23.371Z,98728.88
2022-11-13T08:16:51.992Z,98719.63
2022-11-13T08:19:19.383Z,98721.66
2022-11-13T08:21:46.657Z,98715.13
2022-11-13T08:24:13.799Z,98723.22
2022-11-13T08:26:40.945Z,98729.22
2022-11-13T08:29:08.050Z,98718.53
2022-11-13T08:31:35.176Z,98713.56
2022-11-13T08:34:02.251Z,98711.00
2022-11-13T08:36:34.950Z,98702.94
2022-11-13T08:39:02.365Z,98700.50
2022-11-13T08:41:34.802Z,98704.25
2022-11-13T08:44:05.885Z,98698.22
2022-11-13T08:46:33.055Z,98696.44
2022-11-13T08:49:00.069Z,98695.41
2022-11-13T08:51:27.323Z,98703.66
2022-11-13T08:53:54.509Z,98697.56
2022-11-13T08:56:21.886Z,98696.91
2022-11-13T08:58:49.137Z,98696.19
2022-11-13T09:01:23.952Z,98694.88
2022-11-13T09:04:09.407Z,98692.78
2022-11-13T09:06:36.870Z,98685.69
2022-11-13T09:09:10.351Z,98682.75
2022-11-13T09:11:37.905Z,98676.06
2022-11-13T09:14:06.133Z,98677.59
2022-11-13T09:16:33.535Z,98670.03
2022-11-13T09:19:00.757Z,98664.59
2022-11-13T09:21:27.673Z,98666.28
2022-11-13T09:23:54.740Z,98654.44
2022-11-13T09:26:21.998Z,98652.25
2022-11-13T09:28:49.355Z,98652.47
2022-11-13T09:31:16.736Z,98644.84
2022-11-13T09:33:43.822Z,98650.34
2022-11-13T09:36:15.709Z,98637.13
2022-11-13T09:38:43.587Z,98633.63
2022-11-13T09:41:20.422Z,98616.44
2022-11-13T09:43:59.253Z,98630.97
2022-11-13T09:46:44.427Z,98620.66
2022-11-13T09:49:33.469Z,98621.38
2022-11-13T09:52:26.945Z,98613.50
2022-11-13T09:54:54.531Z,98607.47
2022-11-13T09:57:30.244Z,98611.66
2022-11-13T10:00:03.642Z,98606.69
2022-11-13T10:02:49.011Z,98596.53
2022-11-13T10:05:37.668Z,98597.69
2022-11-13T10:08:18.414Z,98595.91
2022-11-13T10:11:16.684Z,98587.44
2022-11-13T10:13:51.335Z,98586.75
2022-11-13T10:16:33.377Z,98576.81
2022-11-13T10:20:00.615Z,98579.72
2022-11-13T10:22:41.062Z,98571.50
2022-11-13T10:25:31.024Z,98566.72
2022-11-13T10:28:21.511Z,98563.25
2022-11-13T10:30:50.624Z,98559.81
2022-11-13T10:33:19.942Z,98545.00
2022-11-13T10:35:54.897Z,98544.78
2022-11-13T10:38:46.479Z,98540.22
2022-11-13T10:41:15.405Z,98545.53
2022-11-13T10:43:51.842Z,98531.88
2022-11-13T10:46:25.821Z,98531.06
2022-11-13T10:48:53.096Z,98526.84
2022-11-13T10:51:27.690Z,98519.31
2022-11-13T10:53:55.755Z,98512.44
2022-11-13T10:56:36.200Z,98509.56
2022-11-13T10:59:15.194Z,98502.38
2022-11-13T11:01:46.457Z,98506.81
2022-11-13T11:04:30.517Z,98505.13
2022-11-13T11:07:20.218Z,98492.63
2022-11-13T11:09:49.635Z,98506.88
2022-11-13T11:12:30.598Z,98490.06
2022-11-13T11:15:22.705Z,98483.56
2022-11-13T11:18:02.481Z,98472.25
2022-11-13T11:20:45.228Z,98475.53
2022-11-13T11:23:31.931Z,98473.56
2022-11-13T11:26:10.433Z,98462.44
2022-11-13T11:28:45.143Z,98465.06
2022-11-13T11:31:18.143Z,98464.78
2022-11-13T11:33:55.322Z,98458.72
2022-11-13T11:36:41.361Z,98450.13
2022-11-13T11:39:23.942Z,98450.19
2022-11-13T11:41:59.543Z,98449.38
2022-11-13T11:44:52.921Z,98446.47
2022-11-13T11:47:20.007Z,98439.25
2022-11-13T11:49:47.172Z,98435.53
2022-11-13T11:52:37.355Z,98441.19
2022-11-13T11:55:23.062Z,98436.03
2022-11-13T11:57:58.997Z,98436.41
2022-11-13T12:00:31.653Z,98429.75
2022-11-13T12:03:21.940Z,98434.38
2022-11-13T12:06:03.392Z,98427.56
2022-11-13T12:08:44.329Z,98438.72
2022-11-13T12:11:34.002Z,98427.28
2022-11-13T12:14:10.066Z,98431.50
2022-11-13T12:16:57.461Z,98425.09
2022-11-13T12:19:26.941Z,98415.59
2022-11-13T12:22:12.920Z,98417.84
2022-11-13T12:24:59.861Z,98423.13
2022-11-13T12:28:07.973Z,98427.59
2022-11-13T12:34:21.704Z,98422.88
2022-11-13T12:36:59.861Z,98420.06
2022-11-13T12:40:00.820Z,98417.28
2022-11-13T12:42:48.178Z,98425.25
2022-11-13T12:45:27.079Z,98434.84
2022-11-13T12:47:54.280Z,98435.09
2022-11-13T12:50:32.969Z,98441.19
2022-11-13T12:53:10.709Z,98437.47
2022-11-13T12:55:40.394Z,98447.47
2022-11-13T12:58:31.228Z,98441.00
2022-11-13T13:01:05.904Z,98435.97
2022-11-13T13:03:41.761Z,98441.94
2022-11-13T13:06:24.521Z,98445.72
2022-11-13T13:09:06.067Z,98443.66
2022-11-13T13:11:56.220Z,98442.69
2022-11-13T13:14:42.822Z,98447.78
2022-11-13T13:17:15.949Z,98449.63
2022-11-13T13:19:43.325Z,98453.53
2022-11-13T13:22:12.933Z,98454.59
2022-11-13T13:24:40.136Z,98455.09
2022-11-13T13:27:25.973Z,98465.25
2022-11-13T13:29:53.117Z,98456.41
2022-11-13T13:32:42.447Z,98456.41
2022-11-13T13:35:20.449Z,98460.72
2022-11-13T13:38:31.175Z,98455.63
2022-11-13T13:41:21.078Z,98458.78
2022-11-13T13:44:12.637Z,98459.19
2022-11-13T13:46:39.741Z,98461.59
2022-11-13T13:49:14.753Z,98456.53
2022-11-13T13:51:48.277Z,98449.75
2022-11-13T13:54:34.822Z,98454.31
2022-11-13T13:57:02.694Z,98451.41
2022-11-13T13:59:35.656Z,98461.56
2022-11-13T14:02:17.034Z,98460.38
2022-11-13T14:04:46.826Z,98458.75
2022-11-13T14:07:31.315Z,98459.75
2022-11-13T14:10:22.588Z,98463.97
2022-11-13T14:12:53.168Z,98468.53
2022-11-13T14:15:29.900Z,98467.56
2022-11-13T14:18:16.343Z,98466.16
2022-11-13T14:20:53.393Z,98466.78
2022-11-13T14:23:28.870Z,98472.56
2022-11-13T14:25:57.554Z,98476.91
2022-11-13T14:28:27.745Z,98471.88
2022-11-13T14:31:07.421Z,98469.59
2022-11-13T14:33:45.315Z,98474.53
2022-11-13T14:36:13.178Z,98471.16
2022-11-13T14:38:42.199Z,98471.63
2022-11-13T14:41:37.602Z,98475.47
2022-11-13T14:44:05.606Z,98470.94
2022-11-13T14:46:44.710Z,98466.25
2022-11-13T14:49:25.982Z,98466.13
2022-11-13T14:51:57.213Z,98472.13
2022-11-13T14:55:13.477Z,98474.03
2022-11-13T14:57:27.574Z,98477.63
2022-11-13T14:59:56.906Z,98471.84
2022-11-13T15:12:55.216Z,98480.66
2022-11-13T15:19:33.773Z,98471.66
2022-11-13T15:22:25.925Z,98465.19
2022-11-13T15:25:41.375Z,98472.22
2022-11-13T15:28:42.907Z,98480.38
2022-11-13T15:39:24.061Z,98469.91
2022-11-13T15:42:22.086Z,98470.75
2022-11-13T15:45:32.231Z,98473.72
2022-11-13T15:51:35.342Z,98470.75
2022-11-13T16:00:59.541Z,98479.09
2022-11-13T16:10:14.939Z,98478.06
2022-11-13T16:13:09.157Z,98480.41
2022-11-13T16:15:42.605Z,98486.41
2022-11-13T16:18:22.040Z,98481.03
2022-11-13T16:20:49.884Z,98487.38
2022-11-13T16:23:21.159Z,98488.09
2022-11-13T16:25:50.021Z,98483.59
2022-11-13T16:28:19.046Z,98483.22
2022-11-13T16:30:47.610Z,98487.53
2022-11-13T16:33:14.939Z,98488.25
2022-11-13T16:35:42.246Z,98488.03
2022-11-13T16:38:15.206Z,98489.72
2022-11-13T16:40:43.591Z,98492.81
2022-11-13T16:43:11.662Z,98489.63
2022-11-13T16:45:39.442Z,98492.81
2022-11-13T16:48:12.739Z,98490.16
2022-11-13T16:50:40.460Z,98487.69
2022-11-13T16:53:08.433Z,98493.38
2022-11-13T16:55:36.537Z,98491.91
2022-11-13T16:58:04.963Z,98485.63
2022-11-13T17:00:32.346Z,98481.94
2022-11-13T17:02:59.342Z,98491.28
2022-11-13T17:05:27.000Z,98486.50
2022-11-13T17:07:59.350Z,98487.75
2022-11-13T17:10:32.017Z,98483.66
2022-11-13T17:13:00.094Z,98482.06
2022-11-13T17:15:27.493Z,98483.88
2022-11-13T17:17:58.150Z,98481.97
2022-11-13T17:20:25.382Z,98482.28
2022-11-13T17:22:52.510Z,98477.69
2022-11-13T17:25:20.826Z,98470.53
2022-11-13T17:27:48.219Z,98470.94
2022-11-13T17:30:15.400Z,98478.63
2022-11-13T17:32:42.692Z,98474.41
2022-11-13T17:35:12.333Z,98479.78
2022-11-13T17:37:40.052Z,98480.63
2022-11-13T17:43:10.027Z,98468.16
2022-11-13T17:45:38.063Z,98475.72
2022-11-13T17:48:05.469Z,98470.03
2022-11-13T17:50:33.626Z,98476.94
2022-11-13T17:53:00.951Z,98477.34
2022-11-13T17:55:28.068Z,98477.75
2022-11-13T17:58:00.163Z,98472.69
2022-11-13T18:00:27.250Z,98473.41
2022-11-13T18:02:56.464Z,98473.97
2022-11-13T18:05:23.646Z,98474.47
2022-11-13T18:07:50.736Z,98473.09
2022-11-13T18:10:18.680Z,98473.38
2022-11-13T18:12:45.645Z,98477.75
2022-11-13T18:15:12.885Z,98473.06
2022-11-13T18:17:41.195Z,98469.69
2022-11-13T18:20:08.477Z,98472.16
2022-11-13T18:22:35.762Z,98475.16
2022-11-13T18:25:03.565Z,98476.09
2022-11-13T18:27:30.993Z,98473.25
2022-11-13T18:29:58.326Z,98467.63
2022-11-13T18:32:25.583Z,98465.56
2022-11-13T18:34:52.825Z,98467.63
2022-11-13T18:37:20.029Z,98471.19
2022-11-13T18:39:46.984Z,98468.75
2022-11-13T18:42:13.909Z,98473.25
2022-11-13T18:44:45.047Z,98471.75
2022-11-13T18:47:12.702Z,98471.53
2022-11-13T18:49:39.782Z,98479.03
2022-11-13T18:52:07.191Z,98473.31
2022-11-13T18:54:34.809Z,98472.66
2022-11-13T18:57:02.090Z,98467.97
2022-11-13T18:59:29.430Z,98470.03
2022-11-13T19:01:56.732Z,98467.75
2022-11-13T19:04:24.464Z,98471.56
2022-11-13T19:06:55.629Z,98472.78
2022-11-13T19:09:22.720Z,98472.03
2022-11-13T19:11:52.464Z,98475.09
2022-11-13T19:14:37.980Z,98471.47
2022-11-13T19:17:05.166Z,98463.38
2022-11-13T19:19:32.690Z,98476.59
2022-11-13T19:22:09.480Z,98471.91
2022-11-13T19:24:36.737Z,98470.41
2022-11-13T19:27:05.542Z,98469.66
2022-11-13T19:29:32.851Z,98467.50
2022-11-13T19:31:59.909Z,98465.38
2022-11-13T19:34:27.684Z,98468.44
2022-11-13T19:36:55.200Z,98460.22
2022-11-13T19:39:23.935Z,98461.59
2022-11-13T19:41:51.177Z,98454.06
2022-11-13T19:44:18.389Z,98453.41
2022-11-13T19:46:45.934Z,98455.94
2022-11-13T19:49:14.973Z,98453.34
2022-11-13T19:51:42.281Z,98449.00
2022-11-13T19:54:09.638Z,98455.34
2022-11-13T19:56:36.990Z,98459.84
2022-11-13T19:59:04.320Z,98459.22
2022-11-13T20:01:32.413Z,98456.69
2022-11-13T20:04:04.952Z,98457.13
2022-11-13T20:06:33.547Z,98452.81
2022-11-13T20:09:02.144Z,98444.72
2022-11-13T20:11:29.750Z,98453.47
2022-11-13T20:13:57.719Z,98455.84
2022-11-13T20:16:24.980Z,98452.31
2022-11-13T20:18:56.228Z,98461.94
2022-11-13T20:21:27.326Z,98453.31
2022-11-13T20:23:57.151Z,98442.50
2022-11-13T20:26:25.266Z,98449.66
2022-11-13T20:28:52.327Z,98451.09
2022-11-13T20:31:22.781Z,98445.25
2022-11-13T20:33:52.689Z,98448.00
2022-11-13T20:36:20.429Z,98452.19
2022-11-13T20:38:54.952Z,98449.72
2022-11-13T20:41:24.259Z,98448.69
2022-11-13T20:44:00.741Z,98440.16
2022-11-13T20:46:28.729Z,98449.72
2022-11-13T20:48:56.255Z,98443.81
2022-11-13T20:51:28.685Z,98442.28
2022-11-13T20:53:56.135Z,98440.53
2022-11-13T20:56:25.419Z,98443.56
2022-11-13T20:58:53.211Z,98439.66
2022-11-13T21:01:23.493Z,98444.22
2022-11-13T21:03:51.633Z,98433.59
2022-11-13T21:06:21.187Z,98438.22
2022-11-13T21:08:49.065Z,98435.84
2022-11-13T21:11:29.854Z,98426.38
2022-11-13T21:13:58.459Z,98429.88
2022-11-13T21:16:28.152Z,98425.94
2022-11-13T21:19:00.000Z,98421.03
2022-11-13T21:21:29.347Z,98424.66
2022-11-13T21:23:57.578Z,98417.66
2022-11-13T21:26:25.464Z,98431.66
2022-11-13T21:28:57.262Z,98432.53
2022-11-13T21:31:24.628Z,98420.50
2022-11-13T21:33:51.709Z,98429.47
2022-11-13T21:36:22.168Z,98428.88
2022-11-13T21:38:55.347Z,98418.75
2022-11-13T21:41:27.287Z,98421.34
2022-11-13T21:44:00.758Z,98425.13
2022-11-13T21:46:32.355Z,98419.22
2022-11-13T21:49:05.203Z,98416.59
2022-11-13T21:51:35.552Z,98422.88
2022-11-13T21:54:02.837Z,98419.22
2022-11-13T21:56:31.755Z,98419.56
2022-11-13T21:59:00.135Z,98425.34
2022-11-13T22:01:27.604Z,98425.50
2022-11-13T22:03:59.808Z,98426.56
2022-11-13T22:06:32.967Z,98432.28
2022-11-13T22:09:10.873Z,98416.88
2022-11-13T22:11:38.198Z,98414.03
2022-11-13T22:14:11.789Z,98418.03
2022-11-13T22:16:41.748Z,98406.72
2022-11-13T22:19:26.531Z,98401.44
2022-11-13T22:21:56.080Z,98406.91
2022-11-13T22:24:27.022Z,98404.50
2022-11-13T22:27:02.927Z,98394.53
2022-11-13T22:29:30.767Z,98399.66
2022-11-13T22:31:58.744Z,98397.03
2022-11-13T22:34:25.581Z,98399.66
2022-11-13T22:36:52.815Z,98403.00
2022-11-13T22:39:19.871Z,98398.78
2022-11-13T22:41:47.015Z,98392.56
2022-11-13T22:44:14.800Z,98395.31
2022-11-13T22:46:42.177Z,98382.16
2022-11-13T22:49:12.088Z,98377.22
2022-11-13T22:51:42.092Z,98381.44
2022-11-13T22:54:11.567Z,98380.59
2022-11-13T22:56:40.787Z,98389.63
2022-11-13T22:59:10.479Z,98380.88
2022-11-13T23:01:39.126Z,98394.06
2022-11-13T23:04:09.909Z,98389.78
2022-11-13T23:06:37.103Z,98383.16
2022-11-13T23:09:06.189Z,98380.50
2022-11-13T23:11:38.248Z,98377.09
2022-11-13T23:14:10.031Z,98382.22
2022-11-13T23:16:38.118Z,98379.16
2022-11-13T23:19:05.910Z,98378.66
2022-11-13T23:21:33.804Z,98375.34
2022-11-13T23:24:04.826Z,98373.69
2022-11-13T23:26:34.543Z,98382.19
2022-11-13T23:29:02.197Z,98368.38
2022-11-13T23:31:29.759Z,98372.75
2022-11-13T23:33:57.644Z,98363.31
2022-11-13T23:36:25.156Z,98373.59
2022-11-13T23:38:52.612Z,98369.53
2022-11-13T23:41:20.032Z,98367.75
2022-11-13T23:44:07.724Z,98365.16
2022-11-13T23:46:34.781Z,98365.44
2022-11-13T23:49:02.282Z,98370.63
2022-11-13T23:51:29.684Z,98375.09
2022-11-13T23:53:59.688Z,98369.09
2022-11-13T23:56:27.071Z,98367.56
2022-11-13T23:58:54.408Z,98362.59
